Time;durP1;ratioP1;P1;durP2;ratioP2;P2;SDS_P1;SDS_P2;PMS_P1;PMS_P2;Temp;Humidity;BMP_temperature;BMP_pressure;BME280_temperature;BME280_humidity;BME280_pressure;Samples;Min_cycle;Max_cycle;Signal;HPM_P1;HPM_P2
2023/10/02 00:02:40;;;;;;;19.80;11.52;;;;;;;15.65;100.00;101966.22;5053024;28;20029;-51
2023/10/02 00:05:05;;;;;;;20.42;10.82;;;;;;;15.60;100.00;101963.06;5051274;28;20463;-52
2023/10/02 00:07:30;;;;;;;18.33;10.90;;;;;;;15.59;100.00;101967.56;5050280;28;20033;-51
2023/10/02 00:09:55;;;;;;;19.65;11.35;;;;;;;15.60;100.00;101965.75;5047356;28;20032;-51
2023/10/02 00:12:21;;;;;;;20.35;11.05;;;;;;;15.59;100.00;101966.69;5049987;28;20032;-51
2023/10/02 00:14:48;;;;;;;20.20;10.95;;;;;;;15.57;100.00;101969.53;5051813;28;20020;-52
2023/10/02 00:17:15;;;;;;;19.50;10.75;;;;;;;15.54;100.00;101972.44;5051361;28;20074;-52
2023/10/02 00:19:42;;;;;;;23.90;11.05;;;;;;;15.55;100.00;101968.78;5052414;28;20047;-51
2023/10/02 00:22:09;;;;;;;17.77;10.98;;;;;;;15.51;100.00;101976.22;5052309;28;20493;-51
2023/10/02 00:24:37;;;;;;;21.75;11.18;;;;;;;15.52;100.00;101963.66;5051799;28;20033;-51
2023/10/02 00:27:04;;;;;;;22.63;11.48;;;;;;;15.51;100.00;101967.34;5048350;28;20510;-51
2023/10/02 00:29:30;;;;;;;21.85;11.00;;;;;;;15.48;100.00;101965.75;5052197;28;20371;-51
2023/10/02 00:31:56;;;;;;;22.02;11.45;;;;;;;15.46;100.00;101965.00;5051755;28;20459;-51
2023/10/02 00:34:31;;;;;;;23.48;12.50;;;;;;;15.45;100.00;101965.97;5052227;28;20028;-50
2023/10/02 00:37:05;;;;;;;20.27;10.95;;;;;;;15.45;100.00;101963.31;5048760;28;20119;-54
2023/10/02 00:39:40;;;;;;;19.83;10.32;;;;;;;15.45;100.00;101962.47;5051741;28;20109;-52
2023/10/02 00:42:15;;;;;;;20.60;11.10;;;;;;;15.40;100.00;101961.97;5049510;28;20016;-51
2023/10/02 00:44:54;;;;;;;17.67;10.48;;;;;;;15.40;100.00;101961.97;5049922;28;20041;-51
2023/10/02 00:47:42;;;;;;;21.25;11.00;;;;;;;15.40;100.00;101961.97;5050802;28;20079;-51
2023/10/02 00:50:10;;;;;;;19.42;10.88;;;;;;;15.37;100.00;101955.06;5050570;28;20041;-53
2023/10/02 00:52:42;;;;;;;19.27;10.98;;;;;;;15.34;100.00;101958.81;5049600;28;20032;-51
2023/10/02 00:55:10;;;;;;;22.60;10.48;;;;;;;15.33;100.00;101958.94;5048232;28;20037;-52
2023/10/02 00:57:38;;;;;;;20.23;11.30;;;;;;;15.34;100.00;101958.81;5051720;28;20024;-51
2023/10/02 01:00:07;;;;;;;18.30;11.38;;;;;;;15.30;100.00;101956.50;5050952;28;20399;-51
2023/10/02 01:02:36;;;;;;;20.42;10.40;;;;;;;15.28;100.00;101953.09;5051825;28;20394;-52
2023/10/02 01:05:03;;;;;;;19.73;10.68;;;;;;;15.25;100.00;101951.50;5051887;28;20041;-51
2023/10/02 01:07:33;;;;;;;21.40;11.13;;;;;;;15.24;100.00;101955.16;5050560;28;20430;-51
2023/10/02 01:10:10;;;;;;;21.83;11.00;;;;;;;15.22;100.00;101949.09;5051703;28;20028;-52
2023/10/02 01:12:44;;;;;;;19.50;11.23;;;;;;;15.22;100.00;101950.91;5048114;28;20442;-52
2023/10/02 01:15:12;;;;;;;19.08;11.07;;;;;;;15.18;100.00;101950.28;5048914;28;20435;-51
2023/10/02 01:17:39;;;;;;;18.85;10.85;;;;;;;15.16;100.00;101942.38;5050424;28;20082;-51
2023/10/02 01:20:12;;;;;;;19.92;10.48;;;;;;;15.15;100.00;101940.69;5051127;28;20060;-51
2023/10/02 01:22:43;;;;;;;17.77;10.63;;;;;;;15.14;100.00;101935.47;5050948;28;20028;-50
2023/10/02 01:25:13;;;;;;;18.63;10.60;;;;;;;15.12;100.00;101937.38;5051019;28;20048;-50
2023/10/02 01:27:46;;;;;;;18.15;10.48;;;;;;;15.09;100.00;101940.31;5047443;28;20033;-52
2023/10/02 01:30:15;;;;;;;18.90;10.30;;;;;;;15.08;100.00;101939.44;5050667;28;20135;-52
2023/10/02 01:33:12;;;;;;;;;;;;;;;15.16;100.00;101933.50;5051591;28;20472;-53
2023/10/02 01:35:51;;;;;;;19.80;10.65;;;;;;;15.08;100.00;101935.94;5051492;28;19913;-52
2023/10/02 01:38:30;;;;;;;20.15;10.73;;;;;;;15.04;100.00;101929.09;5049839;28;20052;-51
2023/10/02 01:43:32;;;;;;;19.65;10.90;;;;;;;14.99;100.00;101938.34;5046351;28;20466;-51
2023/10/02 01:46:00;;;;;;;22.05;10.98;;;;;;;14.98;100.00;101933.13;5050673;28;20028;-51
2023/10/02 01:48:44;;;;;;;21.23;10.43;;;;;;;14.98;100.00;101927.78;5051447;28;20040;-51
2023/10/02 01:51:20;;;;;;;21.65;11.25;;;;;;;14.97;100.00;101934.06;5049480;28;20475;-51
2023/10/02 01:54:02;;;;;;;22.95;10.70;;;;;;;14.95;100.00;101936.91;5047487;28;20065;-51
2023/10/02 01:56:29;;;;;;;20.80;11.38;;;;;;;14.94;100.00;101929.84;5047562;28;20021;-51
2023/10/02 01:59:09;;;;;;;20.23;10.77;;;;;;;14.93;100.00;101929.94;5052753;28;20029;-51
2023/10/02 02:04:20;;;;;;;21.60;11.10;;;;;;;14.93;100.00;101928.13;5055060;28;20047;-53
2023/10/02 02:06:52;;;;;;;18.75;10.25;;;;;;;14.93;100.00;101925.44;5054918;28;20029;-51
2023/10/02 02:09:24;;;;;;;20.50;11.23;;;;;;;14.92;100.00;101928.22;5054540;28;20033;-50
2023/10/02 02:12:07;;;;;;;22.83;10.55;;;;;;;14.92;100.00;101929.09;5052649;28;20116;-51
2023/10/02 02:14:33;;;;;;;19.95;10.35;;;;;;;14.90;100.00;101927.50;5053582;28;20498;-52
2023/10/02 02:16:59;;;;;;;20.83;10.90;;;;;;;14.89;100.00;101933.81;5053925;28;20032;-52
2023/10/02 02:19:24;;;;;;;20.50;11.40;;;;;;;14.87;100.00;101930.41;5053849;28;20029;-51
2023/10/02 02:21:52;;;;;;;18.65;11.05;;;;;;;14.89;100.00;101925.78;5054244;28;20040;-51
2023/10/02 02:24:17;;;;;;;19.55;10.13;;;;;;;14.86;100.00;101928.72;5054378;28;20489;-52
2023/10/02 02:26:42;;;;;;;19.80;11.27;;;;;;;14.78;100.00;101919.47;5053714;28;20029;-51
2023/10/02 02:29:23;;;;;;;21.05;11.43;;;;;;;14.85;100.00;101921.66;5054448;28;20056;-51
2023/10/02 02:31:49;;;;;;;22.63;11.02;;;;;;;14.81;100.00;101931.75;5051256;28;20026;-52
2023/10/02 02:34:14;;;;;;;20.35;11.60;;;;;;;14.79;100.00;101923.84;5053466;28;20033;-51
2023/10/02 02:36:41;;;;;;;19.77;10.95;;;;;;;14.79;100.00;101925.69;5053872;28;20446;-51
2023/10/02 02:39:17;;;;;;;19.80;11.32;;;;;;;14.78;100.00;101921.28;5053607;28;20486;-51
2023/10/02 02:41:43;;;;;;;19.92;11.70;;;;;;;14.78;100.00;101921.28;5052406;28;20036;-51
2023/10/02 02:44:29;;;;;;;21.05;10.85;;;;;;;14.78;100.00;101924.81;5052084;28;20053;-52
2023/10/02 02:46:55;;;;;;;21.80;12.05;;;;;;;14.78;100.00;101915.94;5054029;28;20036;-51
2023/10/02 02:49:21;;;;;;;19.35;10.77;;;;;;;14.77;100.00;101916.91;5053138;28;20025;-51
2023/10/02 02:51:48;;;;;;;20.85;11.27;;;;;;;14.78;100.00;101914.13;5050408;28;20101;-52
2023/10/02 02:54:14;;;;;;;19.23;10.98;;;;;;;14.75;100.00;101913.50;5050067;28;20031;-53
2023/10/02 02:56:40;;;;;;;19.48;10.93;;;;;;;14.72;100.00;101913.72;5053737;28;20022;-52
2023/10/02 02:59:08;;;;;;;22.20;11.25;;;;;;;14.73;100.00;101915.44;5052817;28;20025;-54
2023/10/02 03:01:34;;;;;;;17.83;10.10;;;;;;;14.71;100.00;101915.56;5054145;28;20037;-52
2023/10/02 03:04:11;;;;;;;20.23;11.35;;;;;;;14.70;100.00;101918.34;5049962;28;20066;-52
2023/10/02 03:06:37;;;;;;;19.35;10.48;;;;;;;14.69;100.00;101917.50;5053031;28;20455;-51
2023/10/02 03:09:05;;;;;;;19.50;10.70;;;;;;;14.66;100.00;101909.72;5051982;28;20394;-52
2023/10/02 03:11:32;;;;;;;22.98;10.73;;;;;;;14.67;100.00;101906.09;5053654;28;20395;-55
2023/10/02 03:14:12;;;;;;;24.52;12.20;;;;;;;14.65;100.00;101912.50;5053209;28;20029;-54
2023/10/02 03:16:38;;;;;;;21.67;11.35;;;;;;;14.63;100.00;101901.94;5049586;28;20028;-52
2023/10/02 03:19:07;;;;;;;23.27;11.93;;;;;;;14.61;100.00;101893.19;5053641;28;20096;-52
2023/10/02 03:21:37;;;;;;;21.23;11.68;;;;;;;14.63;100.00;101893.06;5053393;28;20025;-52
2023/10/02 03:24:04;;;;;;;21.55;11.63;;;;;;;14.62;100.00;101886.84;5053079;28;20029;-54
2023/10/02 03:29:02;;;;;;;21.13;11.50;;;;;;;14.57;100.00;101889.88;5050239;28;20479;-52
2023/10/02 03:31:36;;;;;;;22.20;11.00;;;;;;;14.59;100.00;101892.47;5052721;28;20024;-51
2023/10/02 03:36:52;;;;;;;;;;;;;;;14.65;100.00;101891.13;5052528;28;20146;-54
2023/10/02 03:39:24;;;;;;;19.33;10.85;;;;;;;14.60;100.00;101888.78;5052590;28;19908;-54
2023/10/02 03:41:55;;;;;;;22.13;11.73;;;;;;;14.59;100.00;101887.13;5052415;28;20044;-51
2023/10/02 03:44:22;;;;;;;18.70;10.38;;;;;;;14.57;100.00;101889.88;5052598;28;20123;-54
2023/10/02 03:46:48;;;;;;;21.08;11.52;;;;;;;14.57;100.00;101889.88;5051963;28;20044;-52
2023/10/02 03:49:17;;;;;;;20.90;11.98;;;;;;;14.54;100.00;101883.91;5053243;28;20499;-51
2023/10/02 03:51:44;;;;;;;20.75;11.02;;;;;;;14.55;100.00;101889.09;5051034;28;20047;-51
2023/10/02 03:54:23;;;;;;;18.90;11.27;;;;;;;14.54;100.00;101889.25;5050045;28;20056;-52
2023/10/02 03:56:50;;;;;;;20.35;11.63;;;;;;;14.55;100.00;101891.78;5050716;28;20424;-52
2023/10/02 03:59:17;;;;;;;20.98;11.48;;;;;;;14.55;100.00;101902.47;5051493;28;20386;-51
2023/10/02 04:01:43;;;;;;;22.17;11.68;;;;;;;14.53;100.00;101900.91;5052093;28;20016;-52
2023/10/02 04:06:44;;;;;;;22.38;11.32;;;;;;;14.53;100.00;101899.06;5052638;28;20071;-53
2023/10/02 04:09:21;;;;;;;19.73;11.27;;;;;;;14.53;100.00;101891.06;5052320;28;20040;-52
2023/10/02 04:11:51;;;;;;;22.77;12.13;;;;;;;14.52;100.00;101896.53;5052508;28;20510;-52
2023/10/02 04:14:18;;;;;;;22.17;11.45;;;;;;;14.52;100.00;101894.72;5052669;28;20021;-52
2023/10/02 04:16:48;;;;;;;24.05;11.55;;;;;;;14.52;100.00;101891.19;5052003;28;20033;-52
2023/10/02 04:19:23;;;;;;;21.65;12.25;;;;;;;14.51;100.00;101895.69;5050939;28;20202;-53
2023/10/02 04:21:51;;;;;;;21.90;12.27;;;;;;;14.51;100.00;101894.84;5049907;28;20029;-51
2023/10/02 04:24:23;;;;;;;24.60;12.18;;;;;;;14.52;100.00;101894.72;5052443;28;20028;-52
2023/10/02 04:26:53;;;;;;;22.88;11.80;;;;;;;14.50;100.00;101885.09;5051094;28;20041;-52
2023/10/02 04:32:11;;;;;;;21.48;11.98;;;;;;;14.46;100.00;101887.16;5051404;28;20051;-53
2023/10/02 04:34:36;;;;;;;20.98;12.18;;;;;;;14.48;100.00;101887.88;5050136;28;20036;-51
2023/10/02 04:37:19;;;;;;;25.75;12.02;;;;;;;14.43;100.00;101882.88;5052140;28;20497;-52
2023/10/02 04:40:00;;;;;;;24.73;12.30;;;;;;;14.45;100.00;101890.78;5050734;28;20604;-50
2023/10/02 04:42:28;;;;;;;22.98;12.18;;;;;;;14.42;100.00;101881.19;5048118;28;20068;-51
2023/10/02 04:44:57;;;;;;;24.63;12.33;;;;;;;14.43;100.00;101885.56;5051856;28;20020;-52
2023/10/02 04:47:26;;;;;;;20.60;12.03;;;;;;;14.42;100.00;101891.03;5051091;28;20112;-51
2023/10/02 04:55:24;;;;;;;21.30;12.15;;;;;;;14.38;100.00;101889.56;5051603;28;20624;-51
2023/10/02 04:58:03;;;;;;;22.52;11.60;;;;;;;14.36;100.00;101886.16;5050751;28;20060;-50
2023/10/02 05:00:34;;;;;;;24.50;11.30;;;;;;;14.35;100.00;101884.44;5048627;28;20060;-51
2023/10/02 05:03:17;;;;;;;22.02;11.93;;;;;;;14.32;100.00;101880.22;5051572;28;20032;-51
2023/10/02 05:05:53;;;;;;;21.75;12.00;;;;;;;14.30;100.00;101882.13;5048676;28;20470;-54
2023/10/02 05:08:23;;;;;;;24.02;12.80;;;;;;;14.27;100.00;101873.50;5050392;28;20107;-53
2023/10/02 05:10:52;;;;;;;26.15;12.27;;;;;;;14.27;100.00;101873.50;5050789;28;20044;-51
2023/10/02 05:13:44;;;;;;;21.80;12.40;;;;;;;14.23;100.00;101884.41;5051538;28;20100;-51
2023/10/02 05:16:07;;;;;;;25.80;12.90;;;;;;;14.25;100.00;101884.28;5051305;28;20044;-55
2023/10/02 05:18:33;;;;;;;22.38;11.75;;;;;;;14.24;100.00;101887.94;5051198;28;20116;-52
2023/10/02 05:21:01;;;;;;;23.65;12.48;;;;;;;14.21;100.00;101886.34;5050171;28;20116;-52
2023/10/02 05:23:30;;;;;;;23.73;13.05;;;;;;;14.20;100.00;101889.13;5051333;28;20104;-55
2023/10/02 05:26:02;;;;;;;;;;;;;;;14.27;100.00;101886.84;5052010;28;20021;-53
2023/10/02 05:28:44;;;;;;;22.90;11.95;;;;;;;14.16;100.00;101890.34;5047239;28;20362;-54
2023/10/02 05:31:11;;;;;;;22.73;11.80;;;;;;;14.16;100.00;101893.00;5051251;28;20025;-52
2023/10/02 05:33:37;;;;;;;20.40;12.30;;;;;;;14.14;100.00;101893.13;5053235;28;20096;-52
2023/10/02 05:36:08;;;;;;;20.23;11.75;;;;;;;14.11;100.00;101895.19;5055413;28;20029;-52
2023/10/02 05:38:34;;;;;;;22.30;11.52;;;;;;;14.09;100.00;101889.94;5053141;28;20360;-54
2023/10/02 05:40:59;;;;;;;23.30;12.63;;;;;;;14.07;100.00;101889.19;5054345;28;20024;-54
2023/10/02 05:43:24;;;;;;;27.10;13.13;;;;;;;14.08;100.00;101890.91;5054610;28;20037;-52
2023/10/02 05:45:50;;;;;;;20.98;11.80;;;;;;;14.04;100.00;101886.78;5055425;28;20387;-54
2023/10/02 05:50:56;;;;;;;21.95;12.48;;;;;;;14.03;100.00;101893.91;5052802;28;20040;-54
2023/10/02 05:53:29;;;;;;;25.08;12.70;;;;;;;14.01;100.00;101901.19;5055315;28;20021;-52
2023/10/02 05:58:39;;;;;;;21.35;11.95;;;;;;;14.00;100.00;101907.50;5051688;28;20051;-53
2023/10/02 06:01:06;;;;;;;20.97;11.70;;;;;;;14.02;100.00;101923.41;5046720;28;20099;-50
2023/10/02 06:03:36;;;;;;;22.17;12.07;;;;;;;14.00;100.00;101917.34;5052230;28;20049;-51
2023/10/02 06:06:18;;;;;;;21.98;11.63;;;;;;;14.02;100.00;101913.59;5054743;28;20383;-52
2023/10/02 06:09:03;;;;;;;22.80;12.02;;;;;;;14.03;100.00;101895.75;5054984;28;20033;-52
2023/10/02 06:11:32;;;;;;;24.77;12.85;;;;;;;14.01;100.00;101901.19;5052939;28;20025;-51
2023/10/02 06:14:13;;;;;;;22.77;12.93;;;;;;;14.05;100.00;101907.16;5054327;28;20033;-52
2023/10/02 06:16:45;;;;;;;24.25;12.68;;;;;;;14.03;100.00;101909.09;5048908;28;20029;-52
2023/10/02 06:19:15;;;;;;;23.30;12.63;;;;;;;14.08;100.00;101914.94;5038345;28;20391;-51
2023/10/02 06:21:46;;;;;;;;;;;;;;;14.15;100.00;101910.84;5045302;28;20479;-54
2023/10/02 06:24:27;;;;;;;23.70;12.05;;;;;;;14.09;100.00;101910.44;5045918;28;19915;-52
2023/10/02 06:26:57;;;;;;;21.77;12.10;;;;;;;14.14;100.00;101910.97;5047315;28;20037;-51
2023/10/02 06:29:28;;;;;;;24.70;13.80;;;;;;;14.17;100.00;101910.72;5051204;28;20024;-52
2023/10/02 06:32:11;;;;;;;25.83;13.30;;;;;;;14.19;100.00;101912.34;5047182;28;20575;-51
2023/10/02 06:34:38;;;;;;;26.08;13.25;;;;;;;14.21;100.00;101914.91;5042798;28;20072;-52
2023/10/02 06:37:07;;;;;;;22.98;13.23;;;;;;;14.24;100.00;101917.34;5043871;28;20020;-51
2023/10/02 06:39:35;;;;;;;26.33;13.65;;;;;;;14.27;100.00;101917.09;5053221;28;20036;-52
2023/10/02 06:42:04;;;;;;;25.25;13.48;;;;;;;14.30;100.00;101916.00;5051599;28;20036;-53
2023/10/02 06:44:52;;;;;;;;;;;;;;;14.37;100.00;101917.25;5048958;28;20037;-53
2023/10/02 06:47:18;;;;;;;29.10;14.13;;;;;;;14.39;100.00;101926.03;5046526;28;19931;-52
2023/10/02 06:49:46;;;;;;;25.35;13.90;;;;;;;14.43;100.00;101925.66;5040358;28;20029;-52
2023/10/02 06:52:17;;;;;;;25.80;14.20;;;;;;;14.46;100.00;101927.25;5045907;28;20443;-52
2023/10/02 06:54:48;;;;;;;25.58;13.90;;;;;;;14.51;100.00;101924.25;5044116;28;20036;-50
2023/10/02 06:57:16;;;;;;;24.55;13.98;;;;;;;14.54;100.00;101916.84;5046613;28;20033;-53
2023/10/02 06:59:51;;;;;;;26.77;14.05;;;;;;;14.60;100.00;101921.75;5048118;28;20459;-52
2023/10/02 07:02:19;;;;;;;25.65;14.02;;;;;;;14.66;100.00;101920.41;5048155;28;20137;-52
2023/10/02 07:04:47;;;;;;;28.65;14.35;;;;;;;14.71;100.00;101912.88;5046890;28;20108;-50
2023/10/02 07:07:13;;;;;;;27.38;15.35;;;;;;;14.77;100.00;101909.75;5050075;28;20036;-51
2023/10/02 07:09:39;;;;;;;26.60;15.15;;;;;;;14.83;100.00;101913.75;5052638;28;20043;-52
2023/10/02 07:12:08;;;;;;;28.83;15.25;;;;;;;14.91;100.00;101918.53;5053369;28;20029;-52
2023/10/02 07:14:36;;;;;;;27.60;15.07;;;;;;;14.99;100.00;101910.75;5052332;28;20032;-52
2023/10/02 07:17:16;;;;;;;25.98;14.52;;;;;;;15.08;100.00;101910.00;5053190;28;20025;-51
2023/10/02 07:19:48;;;;;;;25.48;14.98;;;;;;;15.21;100.00;101914.41;5049228;28;20044;-53
2023/10/02 07:22:16;;;;;;;22.15;13.80;;;;;;;15.30;100.00;101911.84;5046622;28;20026;-52
2023/10/02 07:24:46;;;;;;;28.92;14.75;;;;;;;15.42;100.00;101912.72;5049409;28;20032;-51
2023/10/02 07:27:24;;;;;;;23.27;13.85;;;;;;;15.55;100.00;101915.22;5046404;28;20086;-52
2023/10/02 07:29:59;;;;;;;27.98;14.27;;;;;;;15.65;100.00;101908.16;5048321;28;20108;-51
2023/10/02 07:32:31;;;;;;;25.35;13.75;;;;;;;15.80;100.00;101910.59;5047743;28;20080;-52
2023/10/02 07:35:09;;;;;;;26.65;13.90;;;;;;;15.90;100.00;101911.53;5052004;28;20457;-51
2023/10/02 07:37:35;;;;;;;28.25;14.68;;;;;;;16.01;100.00;101913.34;5045457;28;20032;-54
2023/10/02 07:40:02;;;;;;;25.40;13.90;;;;;;;16.11;100.00;101913.44;5047975;28;20437;-52
2023/10/02 07:42:29;;;;;;;24.85;14.00;;;;;;;16.18;100.00;101910.09;5049972;28;20041;-52
2023/10/02 07:45:11;;;;;;;24.42;13.90;;;;;;;16.20;100.00;101907.28;5046294;28;20036;-52
2023/10/02 07:48:08;;;;;;;25.85;13.63;;;;;;;16.33;100.00;101923.19;5049800;28;20051;-54
2023/10/02 07:50:35;;;;;;;24.45;13.93;;;;;;;16.37;100.00;101920.13;5048804;28;20414;-51
2023/10/02 07:53:06;;;;;;;25.42;13.50;;;;;;;16.43;100.00;101908.03;5049577;28;20037;-53
2023/10/02 07:55:34;;;;;;;24.13;13.00;;;;;;;16.44;100.00;101902.53;5047593;28;20025;-55
2023/10/02 07:58:00;;;;;;;23.83;12.88;;;;;;;16.54;100.00;101907.13;5041154;28;20017;-52
2023/10/02 08:00:40;;;;;;;28.10;14.48;;;;;;;16.56;100.00;101908.69;5048059;28;20029;-53
2023/10/02 08:05:58;;;;;;;26.38;13.98;;;;;;;16.65;100.00;101915.09;5046991;28;20103;-54
2023/10/02 08:08:25;;;;;;;;;;;;;;;16.71;100.00;101913.75;5052106;28;20033;-53
2023/10/02 08:10:51;;;;;;;29.25;13.75;;;;;;;16.71;100.00;101913.75;5049223;28;19919;-54
2023/10/02 08:13:17;;;;;;;26.70;14.73;;;;;;;16.77;100.00;101919.44;5048564;28;20037;-55
2023/10/02 08:15:44;;;;;;;27.83;13.70;;;;;;;16.85;100.00;101929.50;5050789;28;20064;-55
2023/10/02 08:18:17;;;;;;;23.77;12.35;;;;;;;16.92;100.00;101929.84;5051421;28;20067;-55
2023/10/02 08:20:45;;;;;;;24.25;13.52;;;;;;;17.02;100.00;101920.88;5043020;28;20076;-53
2023/10/02 08:23:24;;;;;;;27.92;14.32;;;;;;;17.22;100.00;101925.47;5051376;28;20033;-53
2023/10/02 08:26:02;;;;;;;25.60;13.65;;;;;;;17.39;100.00;101923.00;5048480;28;20025;-55
2023/10/02 08:28:33;;;;;;;26.70;14.18;;;;;;;17.56;100.00;101923.34;5051097;28;20020;-55
2023/10/02 08:31:02;;;;;;;30.08;14.25;;;;;;;17.80;100.00;101925.66;5048574;28;20553;-55
2023/10/02 08:33:31;;;;;;;25.63;13.55;;;;;;;18.08;100.00;101924.00;5050861;28;20031;-55
2023/10/02 08:36:09;;;;;;;23.98;13.05;;;;;;;18.30;100.00;101922.03;5024846;28;20036;-55
2023/10/02 08:38:35;;;;;;;23.73;13.40;;;;;;;18.57;100.00;101920.47;5049710;28;20032;-54
2023/10/02 08:41:03;;;;;;;24.88;13.25;;;;;;;18.84;100.00;101922.44;5044898;28;20028;-55
2023/10/02 08:43:32;;;;;;;27.70;14.38;;;;;;;19.07;100.00;101919.38;5047558;28;20534;-56
2023/10/02 08:45:58;;;;;;;24.63;13.65;;;;;;;19.40;100.00;101924.22;5046756;28;20048;-55
2023/10/02 08:48:31;;;;;;;23.75;12.82;;;;;;;19.65;100.00;101924.53;5047937;28;20037;-54
2023/10/02 08:50:58;;;;;;;25.38;12.98;;;;;;;19.95;97.39;101925.19;5045212;28;20685;-54
2023/10/02 08:53:24;;;;;;;23.42;12.38;;;;;;;20.15;96.92;101920.50;5048074;28;20037;-53
2023/10/02 08:56:01;;;;;;;24.40;13.07;;;;;;;20.28;99.08;101915.59;5050728;28;20040;-52
2023/10/02 08:58:27;;;;;;;23.05;12.27;;;;;;;20.38;92.54;101907.38;5046774;28;20490;-54
2023/10/02 09:03:41;;;;;;;20.38;11.60;;;;;;;20.66;96.28;101905.41;5047069;28;20409;-54
2023/10/02 09:06:35;;;;;;;23.23;12.55;;;;;;;20.76;93.21;101912.59;5049946;28;20060;-53
2023/10/02 09:11:47;;;;;;;21.15;11.57;;;;;;;20.85;91.04;101915.19;5046750;28;20047;-54
2023/10/02 09:16:45;;;;;;;20.90;12.02;;;;;;;20.95;89.24;101919.59;5048801;28;20052;-53
2023/10/02 09:19:30;;;;;;;23.85;12.60;;;;;;;21.06;92.46;101919.34;5050076;28;20471;-55
2023/10/02 09:22:06;;;;;;;20.85;12.48;;;;;;;21.05;89.80;101914.97;5047043;28;20059;-53
2023/10/02 09:24:35;;;;;;;22.17;13.05;;;;;;;20.99;89.07;101913.72;5045062;28;20032;-52
2023/10/02 09:27:30;;;;;;;22.95;12.95;;;;;;;20.97;88.45;101909.53;5048772;28;20501;-54
2023/10/02 09:32:47;;;;;;;21.45;12.30;;;;;;;20.99;88.98;101915.59;5045499;28;20036;-55
2023/10/02 09:35:29;;;;;;;21.85;13.02;;;;;;;21.04;90.49;101908.69;5041151;28;20055;-54
2023/10/02 09:38:03;;;;;;;23.83;13.25;;;;;;;20.97;87.76;101914.91;5046699;28;20037;-55
2023/10/02 09:43:22;;;;;;;24.40;13.05;;;;;;;21.01;88.14;101908.19;5041834;28;20509;-56
2023/10/02 09:45:50;;;;;;;22.63;12.68;;;;;;;20.93;89.14;101921.63;5043222;28;20037;-54
2023/10/02 09:51:10;;;;;;;24.55;13.35;;;;;;;21.12;89.46;101899.81;5045788;28;20051;-55
2023/10/02 09:53:41;;;;;;;25.05;13.32;;;;;;;21.32;88.68;101907.66;5050386;28;20049;-56
2023/10/02 09:56:13;;;;;;;21.92;13.02;;;;;;;21.51;88.96;101901.16;5050285;28;20060;-53
2023/10/02 09:58:52;;;;;;;22.05;13.05;;;;;;;21.71;89.12;101904.44;5046807;28;20072;-55
2023/10/02 10:03:51;;;;;;;22.27;12.65;;;;;;;22.09;84.38;101899.44;5050686;28;20183;-53
2023/10/02 10:06:27;;;;;;;22.33;12.77;;;;;;;22.23;82.86;101908.72;5049273;28;20056;-52
2023/10/02 10:15:25;;;;;;;23.92;13.15;;;;;;;22.71;83.10;101893.50;5035604;28;20060;-53
2023/10/02 10:17:51;;;;;;;25.27;13.68;;;;;;;22.87;78.78;101896.16;5047754;28;20033;-53
2023/10/02 10:20:20;;;;;;;19.50;11.68;;;;;;;23.05;82.63;101890.53;5052847;28;20036;-53
2023/10/02 10:22:55;;;;;;;23.30;13.48;;;;;;;23.05;78.87;101885.13;5050703;28;20041;-52
2023/10/02 10:27:54;;;;;;;23.33;12.67;;;;;;;23.33;77.57;101886.56;5052226;28;20195;-54
2023/10/02 10:30:27;;;;;;;24.83;13.57;;;;;;;23.31;77.12;101884.00;5054064;28;20110;-54
2023/10/02 10:35:51;;;;;;;23.83;13.30;;;;;;;23.54;77.20;101875.09;5053982;28;20052;-54
2023/10/02 10:38:21;;;;;;;21.02;12.60;;;;;;;23.67;76.90;101872.66;5050696;28;20423;-54
2023/10/02 10:40:54;;;;;;;22.92;13.23;;;;;;;23.77;75.92;101877.84;5056085;28;20076;-56
2023/10/02 10:43:26;;;;;;;24.85;13.23;;;;;;;23.78;74.26;101869.53;5050839;28;20041;-56
2023/10/02 10:45:54;;;;;;;25.85;13.25;;;;;;;23.86;73.48;101871.34;5053162;28;20021;-56
2023/10/02 10:48:23;;;;;;;20.55;12.07;;;;;;;23.83;75.23;101874.41;5053728;28;20125;-54
2023/10/02 10:51:20;;;;;;;23.60;12.73;;;;;;;23.89;76.25;101873.72;5054686;28;20032;-55
2023/10/02 10:53:52;;;;;;;24.15;12.85;;;;;;;23.83;73.53;101869.84;5053052;28;20025;-53
2023/10/02 10:56:19;;;;;;;21.77;12.75;;;;;;;23.85;76.51;101860.69;5050427;28;20037;-52
2023/10/02 10:58:45;;;;;;;28.17;12.63;;;;;;;23.92;73.67;101861.66;5052238;28;20021;-53
2023/10/02 11:01:22;;;;;;;29.58;12.65;;;;;;;23.91;74.86;101862.69;5051557;28;20025;-53
2023/10/02 11:03:54;;;;;;;29.83;12.95;;;;;;;24.00;74.19;101861.59;5046482;28;20037;-55
2023/10/02 11:06:22;;;;;;;22.40;12.38;;;;;;;23.95;72.50;101864.84;5053160;28;20035;-55
2023/10/02 11:09:16;;;;;;;24.75;13.00;;;;;;;24.00;75.34;101853.47;5053130;28;20029;-54
2023/10/02 11:11:49;;;;;;;25.58;12.52;;;;;;;23.89;74.08;101846.56;5048980;28;20033;-55
2023/10/02 11:14:20;;;;;;;24.10;12.30;;;;;;;23.89;74.18;101854.72;5053048;28;20493;-55
2023/10/02 11:17:01;;;;;;;21.10;12.18;;;;;;;23.95;76.46;101850.44;5049528;28;20479;-56
2023/10/02 11:19:34;;;;;;;23.92;13.57;;;;;;;24.07;74.15;101843.56;5051993;28;20633;-54
2023/10/02 11:22:01;;;;;;;23.00;12.98;;;;;;;24.12;72.59;101846.56;5049563;28;20032;-54
2023/10/02 11:24:27;;;;;;;24.25;13.20;;;;;;;24.23;72.39;101849.84;5050946;28;20056;-56
2023/10/02 11:26:55;;;;;;;22.92;12.40;;;;;;;24.34;72.29;101838.56;5050174;28;20057;-55
2023/10/02 11:29:21;;;;;;;19.05;11.57;;;;;;;24.56;73.27;101840.41;5050510;28;20040;-54
2023/10/02 11:34:43;;;;;;;23.15;12.27;;;;;;;24.75;70.03;101844.44;5049219;28;20517;-53
2023/10/02 11:37:13;;;;;;;23.03;12.50;;;;;;;24.83;71.06;101840.78;5052931;28;20029;-55
2023/10/02 11:39:38;;;;;;;22.40;11.80;;;;;;;24.96;71.49;101829.22;5051686;28;20272;-54
2023/10/02 11:42:06;;;;;;;20.67;12.00;;;;;;;25.04;70.53;101823.69;5052235;28;20033;-55
2023/10/02 11:44:32;;;;;;;18.95;11.50;;;;;;;25.23;71.07;101818.69;5052682;28;20104;-52
2023/10/02 11:46:59;;;;;;;23.13;12.27;;;;;;;25.35;70.91;101824.50;5052456;28;20033;-55
2023/10/02 11:49:27;;;;;;;19.58;12.27;;;;;;;25.36;69.06;101812.59;5047538;28;20027;-53
2023/10/02 11:51:52;;;;;;;20.53;12.07;;;;;;;25.46;68.50;101816.72;5048805;28;20029;-55
2023/10/02 11:54:18;;;;;;;20.02;11.93;;;;;;;25.42;67.56;101807.22;5049837;28;20455;-55
2023/10/02 11:56:46;;;;;;;19.98;11.25;;;;;;;25.37;67.44;101806.13;5050579;28;20068;-53
2023/10/02 11:59:14;;;;;;;20.80;11.57;;;;;;;25.43;67.49;101808.06;5047378;28;20052;-56
2023/10/02 12:01:40;;;;;;;19.00;10.90;;;;;;;25.44;70.31;101802.44;5049081;28;20029;-55
2023/10/02 12:04:05;;;;;;;19.70;11.35;;;;;;;25.51;68.76;101801.69;5049419;28;20020;-55
2023/10/02 12:06:31;;;;;;;22.23;11.68;;;;;;;25.45;69.27;101801.41;5052360;28;20028;-54
2023/10/02 12:08:57;;;;;;;19.88;11.20;;;;;;;25.40;69.05;101797.59;5049779;28;20045;-54
2023/10/02 12:11:26;;;;;;;20.02;11.25;;;;;;;25.44;67.42;101790.72;5051658;28;20025;-53
2023/10/02 12:13:52;;;;;;;19.13;10.88;;;;;;;25.42;71.47;101790.09;5051340;28;20052;-53
2023/10/02 12:16:19;;;;;;;24.60;11.98;;;;;;;25.44;69.08;101788.00;5052193;28;20056;-53
2023/10/02 12:18:45;;;;;;;22.50;12.10;;;;;;;25.36;69.05;101791.69;5047763;28;20023;-52
2023/10/02 12:21:14;;;;;;;18.38;10.82;;;;;;;25.46;70.87;101783.22;5051254;28;20111;-53
2023/10/02 12:23:41;;;;;;;21.63;11.00;;;;;;;25.45;70.79;101787.81;5050663;28;20379;-55
2023/10/02 12:26:12;;;;;;;;;;;;;;;25.74;72.86;101779.72;5051565;28;20150;-54
2023/10/02 12:28:37;;;;;;;;;;;;;;;25.76;72.44;101788.53;5048787;28;20355;-55